sensor_id;sensor_type;location;lat;lon;timestamp;temperature;humidity
10654;DHT22;5375;51.250;6.776;2023-06-10T00:02:11;24.90;53.30
10654;DHT22;5375;51.250;6.776;2023-06-10T00:04:37;24.90;53.20
10654;DHT22;5375;51.250;6.776;2023-06-10T00:07:04;24.90;53.30
10654;DHT22;5375;51.250;6.776;2023-06-10T00:09:37;24.90;53.30
10654;DHT22;5375;51.250;6.776;2023-06-10T00:12:07;24.90;53.30
10654;DHT22;5375;51.250;6.776;2023-06-10T00:14:33;24.90;53.90
10654;DHT22;5375;51.250;6.776;2023-06-10T00:16:59;24.80;53.20
10654;DHT22;5375;51.250;6.776;2023-06-10T00:19:25;24.90;53.20
10654;DHT22;5375;51.250;6.776;2023-06-10T00:21:58;24.90;53.20
10654;DHT22;5375;51.250;6.776;2023-06-10T00:24:24;24.90;53.20
10654;DHT22;5375;51.250;6.776;2023-06-10T00:26:50;24.80;53.20
10654;DHT22;5375;51.250;6.776;2023-06-10T00:29:16;24.90;53.20
10654;DHT22;5375;51.250;6.776;2023-06-10T00:31:41;24.90;53.20
10654;DHT22;5375;51.250;6.776;2023-06-10T00:34:07;24.90;53.20
10654;DHT22;5375;51.250;6.776;2023-06-10T00:36:33;24.80;53.10
10654;DHT22;5375;51.250;6.776;2023-06-10T00:38:59;24.90;53.20
10654;DHT22;5375;51.250;6.776;2023-06-10T00:41:25;24.80;53.10
10654;DHT22;5375;51.250;6.776;2023-06-10T00:43:53;24.80;53.20
10654;DHT22;5375;51.250;6.776;2023-06-10T00:46:20;24.90;53.20
10654;DHT22;5375;51.250;6.776;2023-06-10T00:48:46;24.90;53.20
10654;DHT22;5375;51.250;6.776;2023-06-10T00:51:12;24.80;53.20
10654;DHT22;5375;51.250;6.776;2023-06-10T00:53:40;24.90;53.20
10654;DHT22;5375;51.250;6.776;2023-06-10T00:56:07;24.90;53.20
10654;DHT22;5375;51.250;6.776;2023-06-10T00:58:32;24.80;53.20
10654;DHT22;5375;51.250;6.776;2023-06-10T01:00:58;24.90;53.30
10654;DHT22;5375;51.250;6.776;2023-06-10T01:03:24;24.90;53.40
10654;DHT22;5375;51.250;6.776;2023-06-10T01:05:57;24.80;53.20
10654;DHT22;5375;51.250;6.776;2023-06-10T01:08:58;24.80;53.20
10654;DHT22;5375;51.250;6.776;2023-06-10T01:11:35;24.80;53.20
10654;DHT22;5375;51.250;6.776;2023-06-10T01:14:03;24.80;53.30
10654;DHT22;5375;51.250;6.776;2023-06-10T01:16:30;24.80;53.30
10654;DHT22;5375;51.250;6.776;2023-06-10T01:18:56;24.80;53.20
10654;DHT22;5375;51.250;6.776;2023-06-10T01:21:22;24.80;53.20
10654;DHT22;5375;51.250;6.776;2023-06-10T01:23:54;24.80;53.20
10654;DHT22;5375;51.250;6.776;2023-06-10T01:26:24;24.80;53.20
10654;DHT22;5375;51.250;6.776;2023-06-10T01:29:21;24.80;53.20
10654;DHT22;5375;51.250;6.776;2023-06-10T01:31:57;24.80;53.20
10654;DHT22;5375;51.250;6.776;2023-06-10T01:34:27;24.80;53.20
10654;DHT22;5375;51.250;6.776;2023-06-10T01:36:57;24.80;53.20
10654;DHT22;5375;51.250;6.776;2023-06-10T01:39:24;24.80;53.20
10654;DHT22;5375;51.250;6.776;2023-06-10T01:41:54;24.80;53.10
10654;DHT22;5375;51.250;6.776;2023-06-10T01:44:22;24.80;53.10
10654;DHT22;5375;51.250;6.776;2023-06-10T01:46:48;24.80;53.20
10654;DHT22;5375;51.250;6.776;2023-06-10T01:49:14;24.80;53.20
10654;DHT22;5375;51.250;6.776;2023-06-10T01:51:40;24.80;53.20
10654;DHT22;5375;51.250;6.776;2023-06-10T01:54:05;24.80;53.20
10654;DHT22;5375;51.250;6.776;2023-06-10T01:56:32;24.80;53.20
10654;DHT22;5375;51.250;6.776;2023-06-10T01:58:58;24.80;53.20
10654;DHT22;5375;51.250;6.776;2023-06-10T02:01:26;24.80;53.20
10654;DHT22;5375;51.250;6.776;2023-06-10T02:03:52;24.80;53.20
10654;DHT22;5375;51.250;6.776;2023-06-10T02:06:18;24.80;53.20
10654;DHT22;5375;51.250;6.776;2023-06-10T02:08:44;24.80;53.20
10654;DHT22;5375;51.250;6.776;2023-06-10T02:11:09;24.80;53.20
10654;DHT22;5375;51.250;6.776;2023-06-10T02:13:35;24.80;53.20
10654;DHT22;5375;51.250;6.776;2023-06-10T02:16:01;24.80;53.20
10654;DHT22;5375;51.250;6.776;2023-06-10T02:18:27;24.80;53.20
10654;DHT22;5375;51.250;6.776;2023-06-10T02:20:53;24.80;53.20
10654;DHT22;5375;51.250;6.776;2023-06-10T02:23:19;24.80;53.20
10654;DHT22;5375;51.250;6.776;2023-06-10T02:25:45;24.80;53.10
10654;DHT22;5375;51.250;6.776;2023-06-10T02:28:10;24.80;53.10
10654;DHT22;5375;51.250;6.776;2023-06-10T02:30:39;24.80;53.20
10654;DHT22;5375;51.250;6.776;2023-06-10T02:33:05;24.80;53.10
10654;DHT22;5375;51.250;6.776;2023-06-10T02:35:30;24.80;53.10
10654;DHT22;5375;51.250;6.776;2023-06-10T02:37:56;24.80;53.10
10654;DHT22;5375;51.250;6.776;2023-06-10T02:40:21;24.80;53.10
10654;DHT22;5375;51.250;6.776;2023-06-10T02:42:47;24.70;53.00
10654;DHT22;5375;51.250;6.776;2023-06-10T02:45:13;24.70;53.70
10654;DHT22;5375;51.250;6.776;2023-06-10T02:47:38;24.70;53.00
10654;DHT22;5375;51.250;6.776;2023-06-10T02:50:07;24.70;53.00
10654;DHT22;5375;51.250;6.776;2023-06-10T02:52:33;24.70;53.00
10654;DHT22;5375;51.250;6.776;2023-06-10T02:54:58;24.70;53.10
10654;DHT22;5375;51.250;6.776;2023-06-10T02:57:24;24.70;53.10
10654;DHT22;5375;51.250;6.776;2023-06-10T02:59:49;24.70;53.20
10654;DHT22;5375;51.250;6.776;2023-06-10T03:02:16;24.70;53.10
10654;DHT22;5375;51.250;6.776;2023-06-10T03:04:42;24.80;53.10
10654;DHT22;5375;51.250;6.776;2023-06-10T03:07:09;24.70;53.10
10654;DHT22;5375;51.250;6.776;2023-06-10T03:09:36;24.80;53.20
10654;DHT22;5375;51.250;6.776;2023-06-10T03:12:02;24.80;53.10
10654;DHT22;5375;51.250;6.776;2023-06-10T03:14:28;24.70;53.10
10654;DHT22;5375;51.250;6.776;2023-06-10T03:16:54;24.70;53.10
10654;DHT22;5375;51.250;6.776;2023-06-10T03:19:19;24.70;53.10
10654;DHT22;5375;51.250;6.776;2023-06-10T03:21:57;24.70;53.10
10654;DHT22;5375;51.250;6.776;2023-06-10T03:24:23;24.70;53.10
10654;DHT22;5375;51.250;6.776;2023-06-10T03:26:48;24.70;53.00
10654;DHT22;5375;51.250;6.776;2023-06-10T03:29:14;24.70;53.00
10654;DHT22;5375;51.250;6.776;2023-06-10T03:31:39;24.70;53.00
10654;DHT22;5375;51.250;6.776;2023-06-10T03:34:05;24.70;53.00
10654;DHT22;5375;51.250;6.776;2023-06-10T03:36:31;24.70;53.00
10654;DHT22;5375;51.250;6.776;2023-06-10T03:38:56;24.70;53.00
10654;DHT22;5375;51.250;6.776;2023-06-10T03:41:22;24.70;53.00
10654;DHT22;5375;51.250;6.776;2023-06-10T03:43:48;24.70;53.00
10654;DHT22;5375;51.250;6.776;2023-06-10T03:46:14;24.70;53.00
10654;DHT22;5375;51.250;6.776;2023-06-10T03:48:39;24.70;53.00
10654;DHT22;5375;51.250;6.776;2023-06-10T03:51:05;24.70;53.00
10654;DHT22;5375;51.250;6.776;2023-06-10T03:53:30;24.70;53.00
10654;DHT22;5375;51.250;6.776;2023-06-10T03:55:56;24.70;53.00
10654;DHT22;5375;51.250;6.776;2023-06-10T03:58:23;26.60;54.80
10654;DHT22;5375;51.250;6.776;2023-06-10T04:00:48;24.70;53.00
10654;DHT22;5375;51.250;6.776;2023-06-10T04:03:15;24.80;53.10
10654;DHT22;5375;51.250;6.776;2023-06-10T04:05:41;24.70;53.00
10654;DHT22;5375;51.250;6.776;2023-06-10T04:08:07;24.80;53.00
10654;DHT22;5375;51.250;6.776;2023-06-10T04:10:33;24.80;53.00
10654;DHT22;5375;51.250;6.776;2023-06-10T04:12:59;24.80;53.00
10654;DHT22;5375;51.250;6.776;2023-06-10T04:15:25;24.80;53.00
10654;DHT22;5375;51.250;6.776;2023-06-10T04:17:50;24.70;52.90
10654;DHT22;5375;51.250;6.776;2023-06-10T04:20:16;24.70;52.90
10654;DHT22;5375;51.250;6.776;2023-06-10T04:22:41;24.70;53.50
10654;DHT22;5375;51.250;6.776;2023-06-10T04:25:09;24.80;53.00
10654;DHT22;5375;51.250;6.776;2023-06-10T04:27:35;24.70;52.90
10654;DHT22;5375;51.250;6.776;2023-06-10T04:30:01;24.70;52.90
10654;DHT22;5375;51.250;6.776;2023-06-10T04:32:26;24.70;52.90
10654;DHT22;5375;51.250;6.776;2023-06-10T04:34:52;24.70;52.90
10654;DHT22;5375;51.250;6.776;2023-06-10T04:37:17;24.70;52.90
10654;DHT22;5375;51.250;6.776;2023-06-10T04:39:43;24.70;52.90
10654;DHT22;5375;51.250;6.776;2023-06-10T04:42:09;24.70;52.90
10654;DHT22;5375;51.250;6.776;2023-06-10T04:44:34;24.70;52.90
10654;DHT22;5375;51.250;6.776;2023-06-10T04:47:00;24.70;52.90
10654;DHT22;5375;51.250;6.776;2023-06-10T04:49:26;24.70;52.90
10654;DHT22;5375;51.250;6.776;2023-06-10T04:51:51;24.70;52.90
10654;DHT22;5375;51.250;6.776;2023-06-10T04:54:17;24.70;52.90
10654;DHT22;5375;51.250;6.776;2023-06-10T04:56:43;24.70;52.90
10654;DHT22;5375;51.250;6.776;2023-06-10T04:59:08;24.70;52.90
10654;DHT22;5375;51.250;6.776;2023-06-10T05:01:34;24.70;52.90
10654;DHT22;5375;51.250;6.776;2023-06-10T05:03:59;24.70;52.90
10654;DHT22;5375;51.250;6.776;2023-06-10T05:06:25;24.70;52.90
10654;DHT22;5375;51.250;6.776;2023-06-10T05:08:50;24.70;52.90
10654;DHT22;5375;51.250;6.776;2023-06-10T05:11:16;24.70;52.90
10654;DHT22;5375;51.250;6.776;2023-06-10T05:13:42;24.70;52.90
10654;DHT22;5375;51.250;6.776;2023-06-10T05:16:09;24.70;52.90
10654;DHT22;5375;51.250;6.776;2023-06-10T05:18:35;24.70;52.90
10654;DHT22;5375;51.250;6.776;2023-06-10T05:21:01;24.70;52.90
10654;DHT22;5375;51.250;6.776;2023-06-10T05:23:27;24.70;52.80
10654;DHT22;5375;51.250;6.776;2023-06-10T05:25:53;24.70;52.80
10654;DHT22;5375;51.250;6.776;2023-06-10T05:28:19;24.70;52.90
10654;DHT22;5375;51.250;6.776;2023-06-10T05:30:45;24.70;52.90
10654;DHT22;5375;51.250;6.776;2023-06-10T05:33:10;24.70;53.00
10654;DHT22;5375;51.250;6.776;2023-06-10T05:35:36;24.70;53.10
10654;DHT22;5375;51.250;6.776;2023-06-10T05:38:02;24.70;53.10
10654;DHT22;5375;51.250;6.776;2023-06-10T05:40:28;24.70;53.20
10654;DHT22;5375;51.250;6.776;2023-06-10T05:42:53;24.70;53.20
10654;DHT22;5375;51.250;6.776;2023-06-10T05:45:19;24.70;53.20
10654;DHT22;5375;51.250;6.776;2023-06-10T05:47:44;24.70;53.20
10654;DHT22;5375;51.250;6.776;2023-06-10T05:50:10;24.70;53.20
10654;DHT22;5375;51.250;6.776;2023-06-10T05:52:36;24.70;53.30
10654;DHT22;5375;51.250;6.776;2023-06-10T05:55:05;24.70;53.30
10654;DHT22;5375;51.250;6.776;2023-06-10T05:57:31;24.70;53.30
10654;DHT22;5375;51.250;6.776;2023-06-10T05:59:57;24.70;53.30
10654;DHT22;5375;51.250;6.776;2023-06-10T06:02:22;24.70;53.30
10654;DHT22;5375;51.250;6.776;2023-06-10T06:04:48;24.70;53.30
10654;DHT22;5375;51.250;6.776;2023-06-10T06:07:14;24.70;53.40
10654;DHT22;5375;51.250;6.776;2023-06-10T06:09:39;24.70;53.40
10654;DHT22;5375;51.250;6.776;2023-06-10T06:12:05;24.70;53.40
10654;DHT22;5375;51.250;6.776;2023-06-10T06:14:36;24.70;53.30
10654;DHT22;5375;51.250;6.776;2023-06-10T06:17:02;24.70;53.10
10654;DHT22;5375;51.250;6.776;2023-06-10T06:19:28;24.70;52.80
10654;DHT22;5375;51.250;6.776;2023-06-10T06:21:53;24.60;52.70
10654;DHT22;5375;51.250;6.776;2023-06-10T06:24:19;24.60;52.60
10654;DHT22;5375;51.250;6.776;2023-06-10T06:26:44;24.60;52.50
10654;DHT22;5375;51.250;6.776;2023-06-10T06:29:10;24.60;52.40
10654;DHT22;5375;51.250;6.776;2023-06-10T06:31:36;24.60;52.30
10654;DHT22;5375;51.250;6.776;2023-06-10T06:34:02;24.50;52.20
10654;DHT22;5375;51.250;6.776;2023-06-10T06:36:27;24.50;52.20
10654;DHT22;5375;51.250;6.776;2023-06-10T06:38:53;24.50;52.20
10654;DHT22;5375;51.250;6.776;2023-06-10T06:41:18;24.50;52.00
10654;DHT22;5375;51.250;6.776;2023-06-10T06:43:44;24.50;52.00
10654;DHT22;5375;51.250;6.776;2023-06-10T06:46:10;24.50;52.00
10654;DHT22;5375;51.250;6.776;2023-06-10T06:48:36;24.50;51.90
10654;DHT22;5375;51.250;6.776;2023-06-10T06:51:01;24.50;52.00
10654;DHT22;5375;51.250;6.776;2023-06-10T06:53:27;24.50;52.00
10654;DHT22;5375;51.250;6.776;2023-06-10T06:55:52;24.50;52.00
10654;DHT22;5375;51.250;6.776;2023-06-10T06:58:18;24.50;52.10
10654;DHT22;5375;51.250;6.776;2023-06-10T07:00:44;24.60;52.20
10654;DHT22;5375;51.250;6.776;2023-06-10T07:03:09;24.60;52.20
10654;DHT22;5375;51.250;6.776;2023-06-10T07:05:35;24.60;52.10
10654;DHT22;5375;51.250;6.776;2023-06-10T07:08:01;24.60;52.00
10654;DHT22;5375;51.250;6.776;2023-06-10T07:10:27;24.60;52.00
10654;DHT22;5375;51.250;6.776;2023-06-10T07:12:52;24.60;52.00
10654;DHT22;5375;51.250;6.776;2023-06-10T07:15:18;24.70;52.10
10654;DHT22;5375;51.250;6.776;2023-06-10T07:17:44;24.70;52.10
10654;DHT22;5375;51.250;6.776;2023-06-10T07:20:10;24.70;52.10
10654;DHT22;5375;51.250;6.776;2023-06-10T07:22:36;24.70;52.10
10654;DHT22;5375;51.250;6.776;2023-06-10T07:25:01;24.70;52.10
10654;DHT22;5375;51.250;6.776;2023-06-10T07:27:27;24.70;52.10
10654;DHT22;5375;51.250;6.776;2023-06-10T07:29:53;24.70;52.00
10654;DHT22;5375;51.250;6.776;2023-06-10T07:32:19;24.70;52.00
10654;DHT22;5375;51.250;6.776;2023-06-10T07:34:47;24.70;52.00
10654;DHT22;5375;51.250;6.776;2023-06-10T07:37:13;24.70;52.10
10654;DHT22;5375;51.250;6.776;2023-06-10T07:39:38;24.70;52.10
10654;DHT22;5375;51.250;6.776;2023-06-10T07:42:04;24.70;52.10
10654;DHT22;5375;51.250;6.776;2023-06-10T07:44:30;24.70;52.70
10654;DHT22;5375;51.250;6.776;2023-06-10T07:46:56;24.80;52.20
10654;DHT22;5375;51.250;6.776;2023-06-10T07:49:23;24.70;52.10
10654;DHT22;5375;51.250;6.776;2023-06-10T07:51:49;24.70;52.20
10654;DHT22;5375;51.250;6.776;2023-06-10T07:54:15;24.80;52.20
10654;DHT22;5375;51.250;6.776;2023-06-10T07:56:41;24.80;52.20
10654;DHT22;5375;51.250;6.776;2023-06-10T07:59:06;24.80;52.20
10654;DHT22;5375;51.250;6.776;2023-06-10T08:01:32;24.80;52.20
10654;DHT22;5375;51.250;6.776;2023-06-10T08:03:58;24.80;52.20
10654;DHT22;5375;51.250;6.776;2023-06-10T08:06:24;24.80;52.20
10654;DHT22;5375;51.250;6.776;2023-06-10T08:08:49;24.80;52.20
10654;DHT22;5375;51.250;6.776;2023-06-10T08:11:15;24.80;52.20
10654;DHT22;5375;51.250;6.776;2023-06-10T08:13:41;24.80;52.20
10654;DHT22;5375;51.250;6.776;2023-06-10T08:16:06;24.80;52.20
10654;DHT22;5375;51.250;6.776;2023-06-10T08:18:32;24.80;52.20
10654;DHT22;5375;51.250;6.776;2023-06-10T08:20:59;24.80;52.20
10654;DHT22;5375;51.250;6.776;2023-06-10T08:23:24;24.80;52.20
10654;DHT22;5375;51.250;6.776;2023-06-10T08:25:50;24.80;52.20
10654;DHT22;5375;51.250;6.776;2023-06-10T08:28:16;24.70;52.10
10654;DHT22;5375;51.250;6.776;2023-06-10T08:30:42;24.80;52.20
10654;DHT22;5375;51.250;6.776;2023-06-10T08:33:07;24.80;52.20
10654;DHT22;5375;51.250;6.776;2023-06-10T08:35:33;24.80;52.30
10654;DHT22;5375;51.250;6.776;2023-06-10T08:37:59;24.80;52.20
10654;DHT22;5375;51.250;6.776;2023-06-10T08:40:24;24.80;52.20
10654;DHT22;5375;51.250;6.776;2023-06-10T08:43:03;24.80;52.20
10654;DHT22;5375;51.250;6.776;2023-06-10T08:45:31;24.80;52.30
10654;DHT22;5375;51.250;6.776;2023-06-10T08:47:57;24.80;52.20
10654;DHT22;5375;51.250;6.776;2023-06-10T08:50:24;24.80;52.20
10654;DHT22;5375;51.250;6.776;2023-06-10T08:52:57;24.80;52.20
10654;DHT22;5375;51.250;6.776;2023-06-10T08:55:36;24.80;52.30
10654;DHT22;5375;51.250;6.776;2023-06-10T08:58:03;24.80;52.20
10654;DHT22;5375;51.250;6.776;2023-06-10T09:00:30;24.80;52.30
10654;DHT22;5375;51.250;6.776;2023-06-10T09:02:57;24.80;52.30
10654;DHT22;5375;51.250;6.776;2023-06-10T09:05:23;24.80;52.30
10654;DHT22;5375;51.250;6.776;2023-06-10T09:07:52;24.80;52.30
10654;DHT22;5375;51.250;6.776;2023-06-10T09:10:18;24.80;52.30
10654;DHT22;5375;51.250;6.776;2023-06-10T09:12:43;24.80;52.30
10654;DHT22;5375;51.250;6.776;2023-06-10T09:15:09;24.80;52.30
10654;DHT22;5375;51.250;6.776;2023-06-10T09:17:37;24.80;52.30
10654;DHT22;5375;51.250;6.776;2023-06-10T09:20:03;24.80;52.40
10654;DHT22;5375;51.250;6.776;2023-06-10T09:22:29;24.80;52.30
10654;DHT22;5375;51.250;6.776;2023-06-10T09:25:06;24.80;52.30
10654;DHT22;5375;51.250;6.776;2023-06-10T09:30:27;24.80;52.40
10654;DHT22;5375;51.250;6.776;2023-06-10T09:32:54;24.80;52.40
10654;DHT22;5375;51.250;6.776;2023-06-10T09:35:27;24.80;52.40
10654;DHT22;5375;51.250;6.776;2023-06-10T09:37:54;24.80;52.40
10654;DHT22;5375;51.250;6.776;2023-06-10T09:40:20;24.80;52.40
10654;DHT22;5375;51.250;6.776;2023-06-10T09:42:45;24.80;52.40
10654;DHT22;5375;51.250;6.776;2023-06-10T09:45:14;24.80;52.40
10654;DHT22;5375;51.250;6.776;2023-06-10T09:47:40;24.80;52.40
10654;DHT22;5375;51.250;6.776;2023-06-10T09:50:05;24.80;52.40
10654;DHT22;5375;51.250;6.776;2023-06-10T09:52:31;24.80;52.40
10654;DHT22;5375;51.250;6.776;2023-06-10T09:55:01;24.80;52.40
10654;DHT22;5375;51.250;6.776;2023-06-10T09:57:31;24.80;52.40
10654;DHT22;5375;51.250;6.776;2023-06-10T10:00:09;24.80;52.40
10654;DHT22;5375;51.250;6.776;2023-06-10T10:02:53;24.80;52.40
10654;DHT22;5375;51.250;6.776;2023-06-10T10:05:21;24.80;52.40
10654;DHT22;5375;51.250;6.776;2023-06-10T10:07:47;24.80;52.40
10654;DHT22;5375;51.250;6.776;2023-06-10T10:10:14;24.80;52.40
10654;DHT22;5375;51.250;6.776;2023-06-10T10:12:41;24.80;52.40
10654;DHT22;5375;51.250;6.776;2023-06-10T10:15:08;24.80;52.40
10654;DHT22;5375;51.250;6.776;2023-06-10T10:17:50;24.80;52.50
10654;DHT22;5375;51.250;6.776;2023-06-10T10:20:22;24.80;52.50
10654;DHT22;5375;51.250;6.776;2023-06-10T10:22:50;24.80;52.50
10654;DHT22;5375;51.250;6.776;2023-06-10T10:25:23;24.80;52.50
10654;DHT22;5375;51.250;6.776;2023-06-10T10:28:02;24.80;52.50
10654;DHT22;5375;51.250;6.776;2023-06-10T10:30:30;24.90;52.60
10654;DHT22;5375;51.250;6.776;2023-06-10T10:35:25;24.80;52.60
10654;DHT22;5375;51.250;6.776;2023-06-10T10:37:52;24.80;52.60
10654;DHT22;5375;51.250;6.776;2023-06-10T10:40:20;24.80;52.60
10654;DHT22;5375;51.250;6.776;2023-06-10T10:42:48;24.90;52.60
10654;DHT22;5375;51.250;6.776;2023-06-10T10:45:14;24.90;52.60
10654;DHT22;5375;51.250;6.776;2023-06-10T10:47:41;24.80;52.50
10654;DHT22;5375;51.250;6.776;2023-06-10T10:50:28;24.80;52.60
10654;DHT22;5375;51.250;6.776;2023-06-10T10:52:59;24.80;52.60
10654;DHT22;5375;51.250;6.776;2023-06-10T10:55:26;24.90;52.60
10654;DHT22;5375;51.250;6.776;2023-06-10T10:58:06;24.80;52.60
10654;DHT22;5375;51.250;6.776;2023-06-10T11:00:51;24.80;52.50
10654;DHT22;5375;51.250;6.776;2023-06-10T11:03:17;24.80;52.60
10654;DHT22;5375;51.250;6.776;2023-06-10T11:05:47;24.80;52.60
10654;DHT22;5375;51.250;6.776;2023-06-10T11:08:16;24.90;52.70
10654;DHT22;5375;51.250;6.776;2023-06-10T11:11:01;24.90;52.80
10654;DHT22;5375;51.250;6.776;2023-06-10T11:14:05;24.80;52.60
10654;DHT22;5375;51.250;6.776;2023-06-10T11:16:40;24.80;52.60
10654;DHT22;5375;51.250;6.776;2023-06-10T11:19:06;24.90;52.70
10654;DHT22;5375;51.250;6.776;2023-06-10T11:21:32;24.90;52.70
10654;DHT22;5375;51.250;6.776;2023-06-10T11:24:00;24.90;53.30
10654;DHT22;5375;51.250;6.776;2023-06-10T11:26:44;24.80;52.60
10654;DHT22;5375;51.250;6.776;2023-06-10T11:29:10;24.90;52.70
10654;DHT22;5375;51.250;6.776;2023-06-10T11:31:46;24.90;52.70
10654;DHT22;5375;51.250;6.776;2023-06-10T11:34:14;24.90;53.30
10654;DHT22;5375;51.250;6.776;2023-06-10T11:36:42;24.90;52.70
10654;DHT22;5375;51.250;6.776;2023-06-10T11:39:09;24.90;52.70
10654;DHT22;5375;51.250;6.776;2023-06-10T11:41:36;24.90;52.70
10654;DHT22;5375;51.250;6.776;2023-06-10T11:44:12;24.90;52.70
10654;DHT22;5375;51.250;6.776;2023-06-10T11:46:39;24.90;52.70
10654;DHT22;5375;51.250;6.776;2023-06-10T11:49:05;24.90;52.80
10654;DHT22;5375;51.250;6.776;2023-06-10T11:51:35;24.90;52.80
10654;DHT22;5375;51.250;6.776;2023-06-10T11:54:02;24.90;52.80
10654;DHT22;5375;51.250;6.776;2023-06-10T11:56:30;24.90;52.80
10654;DHT22;5375;51.250;6.776;2023-06-10T11:59:01;24.90;52.80
10654;DHT22;5375;51.250;6.776;2023-06-10T12:01:32;24.90;52.80
10654;DHT22;5375;51.250;6.776;2023-06-10T12:03:58;24.90;52.80
10654;DHT22;5375;51.250;6.776;2023-06-10T12:06:24;24.90;52.80
10654;DHT22;5375;51.250;6.776;2023-06-10T12:08:50;24.90;52.80
10654;DHT22;5375;51.250;6.776;2023-06-10T12:11:16;24.90;52.80
10654;DHT22;5375;51.250;6.776;2023-06-10T12:13:48;24.90;52.80
10654;DHT22;5375;51.250;6.776;2023-06-10T12:16:15;24.90;52.80
10654;DHT22;5375;51.250;6.776;2023-06-10T12:18:43;24.90;52.80
10654;DHT22;5375;51.250;6.776;2023-06-10T12:21:19;24.90;52.80
10654;DHT22;5375;51.250;6.776;2023-06-10T12:24:12;24.90;52.80
10654;DHT22;5375;51.250;6.776;2023-06-10T12:26:41;25.00;52.90
10654;DHT22;5375;51.250;6.776;2023-06-10T12:29:25;24.90;52.80
10654;DHT22;5375;51.250;6.776;2023-06-10T12:32:01;24.90;52.80
10654;DHT22;5375;51.250;6.776;2023-06-10T12:34:38;25.00;52.80
10654;DHT22;5375;51.250;6.776;2023-06-10T12:37:07;24.90;52.80
10654;DHT22;5375;51.250;6.776;2023-06-10T12:39:38;24.90;52.80
10654;DHT22;5375;51.250;6.776;2023-06-10T12:42:04;24.90;52.80
10654;DHT22;5375;51.250;6.776;2023-06-10T12:44:35;25.00;52.80
10654;DHT22;5375;51.250;6.776;2023-06-10T12:47:10;24.90;52.80
10654;DHT22;5375;51.250;6.776;2023-06-10T12:49:37;24.90;53.40
10654;DHT22;5375;51.250;6.776;2023-06-10T12:52:04;25.00;52.80
10654;DHT22;5375;51.250;6.776;2023-06-10T12:54:30;25.00;52.80
10654;DHT22;5375;51.250;6.776;2023-06-10T12:56:56;24.90;52.80
10654;DHT22;5375;51.250;6.776;2023-06-10T12:59:21;24.90;52.80
10654;DHT22;5375;51.250;6.776;2023-06-10T13:01:54;25.00;52.80
10654;DHT22;5375;51.250;6.776;2023-06-10T13:04:20;25.00;52.80
10654;DHT22;5375;51.250;6.776;2023-06-10T13:06:47;25.00;52.80
10654;DHT22;5375;51.250;6.776;2023-06-10T13:09:16;24.90;52.80
10654;DHT22;5375;51.250;6.776;2023-06-10T13:11:42;25.00;52.80
10654;DHT22;5375;51.250;6.776;2023-06-10T13:14:09;25.00;52.80
10654;DHT22;5375;51.250;6.776;2023-06-10T13:16:35;25.00;52.80
10654;DHT22;5375;51.250;6.776;2023-06-10T13:19:03;25.00;52.80
10654;DHT22;5375;51.250;6.776;2023-06-10T13:21:31;25.00;52.80
10654;DHT22;5375;51.250;6.776;2023-06-10T13:23:57;25.00;52.80
10654;DHT22;5375;51.250;6.776;2023-06-10T13:26:22;25.00;52.80
10654;DHT22;5375;51.250;6.776;2023-06-10T13:28:48;25.00;52.80
10654;DHT22;5375;51.250;6.776;2023-06-10T13:31:14;25.00;52.80
10654;DHT22;5375;51.250;6.776;2023-06-10T13:33:40;25.00;52.80
10654;DHT22;5375;51.250;6.776;2023-06-10T13:36:06;25.00;52.80
10654;DHT22;5375;51.250;6.776;2023-06-10T13:38:31;25.00;52.90
10654;DHT22;5375;51.250;6.776;2023-06-10T13:40:57;25.00;52.80
10654;DHT22;5375;51.250;6.776;2023-06-10T13:43:23;25.00;52.80
10654;DHT22;5375;51.250;6.776;2023-06-10T13:45:48;25.00;52.80
10654;DHT22;5375;51.250;6.776;2023-06-10T13:48:14;25.00;52.80
10654;DHT22;5375;51.250;6.776;2023-06-10T13:50:40;25.00;52.80
10654;DHT22;5375;51.250;6.776;2023-06-10T13:53:05;25.00;52.80
10654;DHT22;5375;51.250;6.776;2023-06-10T13:55:31;25.00;52.80
10654;DHT22;5375;51.250;6.776;2023-06-10T13:57:57;25.00;52.80
10654;DHT22;5375;51.250;6.776;2023-06-10T14:00:22;25.00;52.80
10654;DHT22;5375;51.250;6.776;2023-06-10T14:02:48;25.00;52.80
10654;DHT22;5375;51.250;6.776;2023-06-10T14:05:14;25.00;52.80
10654;DHT22;5375;51.250;6.776;2023-06-10T14:07:39;25.00;52.80
10654;DHT22;5375;51.250;6.776;2023-06-10T14:10:06;25.00;52.80
10654;DHT22;5375;51.250;6.776;2023-06-10T14:12:34;25.00;52.80
10654;DHT22;5375;51.250;6.776;2023-06-10T14:15:00;25.10;52.80
10654;DHT22;5375;51.250;6.776;2023-06-10T14:17:26;25.10;52.80
10654;DHT22;5375;51.250;6.776;2023-06-10T14:19:51;25.10;52.80
10654;DHT22;5375;51.250;6.776;2023-06-10T14:22:17;25.10;53.50
10654;DHT22;5375;51.250;6.776;2023-06-10T14:24:42;25.00;52.80
10654;DHT22;5375;51.250;6.776;2023-06-10T14:27:08;25.10;52.80
10654;DHT22;5375;51.250;6.776;2023-06-10T14:29:34;25.10;52.80
10654;DHT22;5375;51.250;6.776;2023-06-10T14:32:00;25.10;52.80
10654;DHT22;5375;51.250;6.776;2023-06-10T14:34:27;25.00;52.80
10654;DHT22;5375;51.250;6.776;2023-06-10T14:36:59;25.10;52.80
10654;DHT22;5375;51.250;6.776;2023-06-10T14:39:25;25.10;52.80
10654;DHT22;5375;51.250;6.776;2023-06-10T14:41:51;25.10;52.80
10654;DHT22;5375;51.250;6.776;2023-06-10T14:44:18;25.10;52.80
10654;DHT22;5375;51.250;6.776;2023-06-10T14:46:44;25.10;52.80
10654;DHT22;5375;51.250;6.776;2023-06-10T14:49:09;25.10;52.80
10654;DHT22;5375;51.250;6.776;2023-06-10T14:51:35;25.10;52.80
10654;DHT22;5375;51.250;6.776;2023-06-10T14:54:01;25.10;52.80
10654;DHT22;5375;51.250;6.776;2023-06-10T14:56:26;25.10;52.80
10654;DHT22;5375;51.250;6.776;2023-06-10T14:58:52;25.10;52.80
10654;DHT22;5375;51.250;6.776;2023-06-10T15:01:18;25.10;52.80
10654;DHT22;5375;51.250;6.776;2023-06-10T15:03:44;25.10;52.80
10654;DHT22;5375;51.250;6.776;2023-06-10T15:06:10;25.10;52.80
10654;DHT22;5375;51.250;6.776;2023-06-10T15:08:35;25.10;52.80
10654;DHT22;5375;51.250;6.776;2023-06-10T15:11:01;25.10;52.80
10654;DHT22;5375;51.250;6.776;2023-06-10T15:13:28;25.10;52.80
10654;DHT22;5375;51.250;6.776;2023-06-10T15:15:54;25.10;52.80
10654;DHT22;5375;51.250;6.776;2023-06-10T15:18:19;25.10;52.80
10654;DHT22;5375;51.250;6.776;2023-06-10T15:20:45;25.10;52.80
10654;DHT22;5375;51.250;6.776;2023-06-10T15:23:11;25.10;52.80
10654;DHT22;5375;51.250;6.776;2023-06-10T15:25:36;25.10;52.80
10654;DHT22;5375;51.250;6.776;2023-06-10T15:28:02;25.10;52.80
10654;DHT22;5375;51.250;6.776;2023-06-10T15:30:29;25.10;52.80
10654;DHT22;5375;51.250;6.776;2023-06-10T15:32:54;25.10;52.80
10654;DHT22;5375;51.250;6.776;2023-06-10T15:35:20;25.10;52.80
10654;DHT22;5375;51.250;6.776;2023-06-10T15:37:46;25.10;52.80
10654;DHT22;5375;51.250;6.776;2023-06-10T15:40:11;25.10;52.80
10654;DHT22;5375;51.250;6.776;2023-06-10T15:42:37;25.10;52.80
10654;DHT22;5375;51.250;6.776;2023-06-10T15:45:03;25.10;53.40
10654;DHT22;5375;51.250;6.776;2023-06-10T15:47:29;25.10;52.80
10654;DHT22;5375;51.250;6.776;2023-06-10T15:49:54;25.10;53.40
10654;DHT22;5375;51.250;6.776;2023-06-10T15:52:20;25.10;52.80